sensor_id;sensor_type;location;lat;lon;timestamp;pressure;altitude;pressure_sealevel;temperature;humidity
69911;BME280;63555;49.920;17.868;2023-04-01T00:02:30;96999.00;;;6.97;85.91
69911;BME280;63555;49.920;17.868;2023-04-01T00:07:30;96994.72;;;6.96;85.84
69911;BME280;63555;49.920;17.868;2023-04-01T00:12:30;97010.69;;;6.93;85.29
69911;BME280;63555;49.920;17.868;2023-04-01T00:17:31;97019.22;;;6.85;85.01
69911;BME280;63555;49.920;17.868;2023-04-01T00:22:31;97013.28;;;6.74;85.49
69911;BME280;63555;49.920;17.868;2023-04-01T00:27:32;97005.13;;;6.67;86.05
69911;BME280;63555;49.920;17.868;2023-04-01T00:32:33;97002.91;;;6.62;85.60
69911;BME280;63555;49.920;17.868;2023-04-01T00:37:37;96996.56;;;6.55;85.91
69911;BME280;63555;49.920;17.868;2023-04-01T00:42:37;96984.16;;;6.48;86.43
69911;BME280;63555;49.920;17.868;2023-04-01T00:47:38;96979.03;;;6.46;86.78
69911;BME280;63555;49.920;17.868;2023-04-01T00:52:38;96979.59;;;6.50;86.17
69911;BME280;63555;49.920;17.868;2023-04-01T00:57:39;96988.72;;;6.55;85.76
69911;BME280;63555;49.920;17.868;2023-04-01T01:02:43;96974.53;;;6.58;86.12
69911;BME280;63555;49.920;17.868;2023-04-01T01:08:01;96971.50;;;6.62;86.63
69911;BME280;63555;49.920;17.868;2023-04-01T01:13:27;96968.06;;;6.71;85.81
69911;BME280;63555;49.920;17.868;2023-04-01T01:18:42;96970.69;;;6.81;85.81
69911;BME280;63555;49.920;17.868;2023-04-01T01:24:13;96967.13;;;6.92;85.81
69911;BME280;63555;49.920;17.868;2023-04-01T01:40:06;96975.69;;;7.13;86.06
69911;BME280;63555;49.920;17.868;2023-04-01T01:45:09;96972.66;;;7.18;85.73
69911;BME280;63555;49.920;17.868;2023-04-01T01:50:11;96974.72;;;7.24;85.31
69911;BME280;63555;49.920;17.868;2023-04-01T01:55:36;96980.50;;;7.27;85.99
69911;BME280;63555;49.920;17.868;2023-04-01T02:00:37;96975.53;;;7.34;85.74
69911;BME280;63555;49.920;17.868;2023-04-01T02:05:39;96974.97;;;7.40;85.83
69911;BME280;63555;49.920;17.868;2023-04-01T02:10:43;96986.56;;;7.47;85.33
69911;BME280;63555;49.920;17.868;2023-04-01T02:15:48;96980.63;;;7.55;85.75
69911;BME280;63555;49.920;17.868;2023-04-01T02:20:51;96985.56;;;7.58;85.77
69911;BME280;63555;49.920;17.868;2023-04-01T02:25:52;96990.25;;;7.64;84.95
69911;BME280;63555;49.920;17.868;2023-04-01T02:30:53;96968.84;;;7.68;85.55
69911;BME280;63555;49.920;17.868;2023-04-01T02:35:53;96971.44;;;7.78;85.17
69911;BME280;63555;49.920;17.868;2023-04-01T02:40:59;96982.78;;;7.88;85.13
69911;BME280;63555;49.920;17.868;2023-04-01T02:46:00;96992.69;;;7.94;84.65
69911;BME280;63555;49.920;17.868;2023-04-01T02:51:01;96988.97;;;7.97;84.47
69911;BME280;63555;49.920;17.868;2023-04-01T02:56:02;96988.81;;;7.98;84.39
69911;BME280;63555;49.920;17.868;2023-04-01T03:01:03;96999.16;;;8.00;84.28
69911;BME280;63555;49.920;17.868;2023-04-01T03:06:07;96998.50;;;7.98;84.45
69911;BME280;63555;49.920;17.868;2023-04-01T03:11:09;96985.56;;;7.67;84.70
69911;BME280;63555;49.920;17.868;2023-04-01T03:16:10;97000.50;;;7.38;86.67
69911;BME280;63555;49.920;17.868;2023-04-01T03:21:21;97008.66;;;7.16;87.51
69911;BME280;63555;49.920;17.868;2023-04-01T03:26:22;97016.53;;;7.06;88.16
69911;BME280;63555;49.920;17.868;2023-04-01T03:31:23;97016.25;;;6.99;88.67
69911;BME280;63555;49.920;17.868;2023-04-01T03:36:23;97008.53;;;6.98;88.78
69911;BME280;63555;49.920;17.868;2023-04-01T03:41:24;97003.56;;;7.05;89.10
69911;BME280;63555;49.920;17.868;2023-04-01T03:46:25;97023.00;;;7.12;89.38
69911;BME280;63555;49.920;17.868;2023-04-01T03:51:25;97009.22;;;7.19;88.64
69911;BME280;63555;49.920;17.868;2023-04-01T03:56:26;97022.59;;;7.26;88.86
69911;BME280;63555;49.920;17.868;2023-04-01T04:01:26;97022.06;;;7.32;88.57
69911;BME280;63555;49.920;17.868;2023-04-01T04:06:27;97020.66;;;7.38;88.48
69911;BME280;63555;49.920;17.868;2023-04-01T04:11:28;97023.84;;;7.41;88.63
69911;BME280;63555;49.920;17.868;2023-04-01T04:16:30;97029.78;;;7.43;88.65
69911;BME280;63555;49.920;17.868;2023-04-01T04:21:31;97023.41;;;7.46;88.46
69911;BME280;63555;49.920;17.868;2023-04-01T04:26:31;97025.91;;;7.47;88.17
69911;BME280;63555;49.920;17.868;2023-04-01T04:31:32;97024.78;;;7.50;88.03
69911;BME280;63555;49.920;17.868;2023-04-01T04:36:32;97016.50;;;7.54;87.70
69911;BME280;63555;49.920;17.868;2023-04-01T04:41:32;97027.41;;;7.59;87.43
69911;BME280;63555;49.920;17.868;2023-04-01T04:46:33;97024.50;;;7.62;87.17
69911;BME280;63555;49.920;17.868;2023-04-01T04:51:33;97030.03;;;7.59;87.23
69911;BME280;63555;49.920;17.868;2023-04-01T04:56:35;97018.84;;;7.57;87.34
69911;BME280;63555;49.920;17.868;2023-04-01T05:01:36;97033.63;;;7.58;87.90
69911;BME280;63555;49.920;17.868;2023-04-01T05:06:36;97032.50;;;7.61;87.71
69911;BME280;63555;49.920;17.868;2023-04-01T05:11:36;97025.59;;;7.70;87.61
69911;BME280;63555;49.920;17.868;2023-04-01T05:16:37;97024.50;;;7.82;87.34
69911;BME280;63555;49.920;17.868;2023-04-01T05:21:37;97012.28;;;8.00;87.68
69911;BME280;63555;49.920;17.868;2023-04-01T05:26:37;97018.88;;;8.14;86.74
69911;BME280;63555;49.920;17.868;2023-04-01T05:31:38;97007.09;;;8.27;87.19
69911;BME280;63555;49.920;17.868;2023-04-01T05:36:38;97019.75;;;8.42;86.68
69911;BME280;63555;49.920;17.868;2023-04-01T05:41:39;97013.06;;;8.57;85.98
69911;BME280;63555;49.920;17.868;2023-04-01T05:46:41;97019.19;;;8.75;85.79
69911;BME280;63555;49.920;17.868;2023-04-01T05:51:41;97028.38;;;8.89;85.55
69911;BME280;63555;49.920;17.868;2023-04-01T05:56:41;97012.16;;;8.93;84.98
69911;BME280;63555;49.920;17.868;2023-04-01T06:01:42;97025.09;;;8.87;85.58
69911;BME280;63555;49.920;17.868;2023-04-01T06:06:43;97021.53;;;8.78;85.76
69911;BME280;63555;49.920;17.868;2023-04-01T06:12:11;97025.59;;;8.73;85.77
69911;BME280;63555;49.920;17.868;2023-04-01T06:17:27;97037.06;;;8.72;85.85
69911;BME280;63555;49.920;17.868;2023-04-01T06:33:52;97033.66;;;8.89;85.62
69911;BME280;63555;49.920;17.868;2023-04-01T06:50:00;97036.47;;;9.58;84.25
69911;BME280;63555;49.920;17.868;2023-04-01T07:00:24;97050.81;;;10.08;83.50
69911;BME280;63555;49.920;17.868;2023-04-01T07:05:30;97048.78;;;10.02;83.00
69911;BME280;63555;49.920;17.868;2023-04-01T07:10:41;97056.63;;;9.94;83.18
69911;BME280;63555;49.920;17.868;2023-04-01T07:15:49;97060.13;;;9.76;83.40
69911;BME280;63555;49.920;17.868;2023-04-01T07:20:51;97063.25;;;9.54;83.83
69911;BME280;63555;49.920;17.868;2023-04-01T07:25:55;97071.69;;;9.48;84.37
69911;BME280;63555;49.920;17.868;2023-04-01T07:36:39;97070.06;;;9.65;84.45
69911;BME280;63555;49.920;17.868;2023-04-01T07:41:54;97073.91;;;9.70;84.06
69911;BME280;63555;49.920;17.868;2023-04-01T07:47:14;97068.19;;;9.75;84.21
69911;BME280;63555;49.920;17.868;2023-04-01T08:08:19;97084.56;;;10.56;82.54
69911;BME280;63555;49.920;17.868;2023-04-01T08:23:52;97098.72;;;10.55;82.19
69911;BME280;63555;49.920;17.868;2023-04-01T08:29:03;97094.44;;;10.54;82.64
69911;BME280;63555;49.920;17.868;2023-04-01T08:34:08;97097.44;;;10.59;83.06
69911;BME280;63555;49.920;17.868;2023-04-01T08:39:16;97097.16;;;10.70;82.72
69911;BME280;63555;49.920;17.868;2023-04-01T08:44:40;97098.19;;;10.77;82.50
69911;BME280;63555;49.920;17.868;2023-04-01T08:55:36;97104.53;;;11.01;82.44
69911;BME280;63555;49.920;17.868;2023-04-01T09:00:54;97100.06;;;11.35;81.60
69911;BME280;63555;49.920;17.868;2023-04-01T09:06:26;97098.28;;;11.68;80.53
69911;BME280;63555;49.920;17.868;2023-04-01T09:48:35;97101.03;;;13.28;75.99
69911;BME280;63555;49.920;17.868;2023-04-01T09:53:48;97099.16;;;13.36;76.49
69911;BME280;63555;49.920;17.868;2023-04-01T10:10:03;97094.91;;;14.04;73.15
69911;BME280;63555;49.920;17.868;2023-04-01T10:36:59;97112.03;;;12.12;75.17
69911;BME280;63555;49.920;17.868;2023-04-01T11:25:11;97106.50;;;16.65;62.85
69911;BME280;63555;49.920;17.868;2023-04-01T11:30:33;97113.38;;;16.32;63.68
69911;BME280;63555;49.920;17.868;2023-04-01T11:35:46;97108.47;;;15.86;63.84
69911;BME280;63555;49.920;17.868;2023-04-01T11:46:25;97128.91;;;15.20;63.61
69911;BME280;63555;49.920;17.868;2023-04-01T12:23:22;97137.25;;;14.87;58.16
69911;BME280;63555;49.920;17.868;2023-04-01T12:50:19;97157.94;;;15.36;56.79
69911;BME280;63555;49.920;17.868;2023-04-01T13:00:43;97155.19;;;14.85;57.19
69911;BME280;63555;49.920;17.868;2023-04-01T13:11:09;97156.69;;;14.05;58.97
69911;BME280;63555;49.920;17.868;2023-04-01T13:21:25;97158.81;;;14.09;58.67
69911;BME280;63555;49.920;17.868;2023-04-01T13:26:34;97160.00;;;14.07;59.13
69911;BME280;63555;49.920;17.868;2023-04-01T13:58:31;97144.53;;;16.38;54.22
69911;BME280;63555;49.920;17.868;2023-04-01T14:30:43;97155.81;;;17.65;49.21
69911;BME280;63555;49.920;17.868;2023-04-01T14:46:52;97158.06;;;18.88;47.19
69911;BME280;63555;49.920;17.868;2023-04-01T14:52:04;97159.28;;;19.77;45.76
69911;BME280;63555;49.920;17.868;2023-04-01T14:57:14;97150.09;;;20.42;44.49
69911;BME280;63555;49.920;17.868;2023-04-01T15:18:19;97191.25;;;16.47;49.44
69911;BME280;63555;49.920;17.868;2023-04-01T15:24:25;97198.13;;;14.89;52.58
69911;BME280;63555;49.920;17.868;2023-04-01T15:34:46;97200.84;;;13.03;56.46
69911;BME280;63555;49.920;17.868;2023-04-01T16:01:16;97222.69;;;11.57;60.24
69911;BME280;63555;49.920;17.868;2023-04-01T16:11:55;97241.78;;;11.43;60.77
69911;BME280;63555;49.920;17.868;2023-04-01T16:22:17;97236.13;;;11.30;61.53
69911;BME280;63555;49.920;17.868;2023-04-01T16:27:42;97244.06;;;11.12;61.92
69911;BME280;63555;49.920;17.868;2023-04-01T16:32:53;97250.91;;;10.97;62.33
69911;BME280;63555;49.920;17.868;2023-04-01T16:38:18;97265.50;;;10.83;62.75
69911;BME280;63555;49.920;17.868;2023-04-01T16:43:39;97269.66;;;10.68;62.88
69911;BME280;63555;49.920;17.868;2023-04-01T16:48:52;97274.66;;;10.53;63.23
69911;BME280;63555;49.920;17.868;2023-04-01T16:54:05;97283.53;;;10.34;63.83
69911;BME280;63555;49.920;17.868;2023-04-01T17:04:23;97295.97;;;9.97;64.78
69911;BME280;63555;49.920;17.868;2023-04-01T17:09:39;97302.00;;;9.79;65.04
69911;BME280;63555;49.920;17.868;2023-04-01T17:36:33;97337.13;;;9.23;66.36
69911;BME280;63555;49.920;17.868;2023-04-01T17:41:40;97341.41;;;9.24;66.33
69911;BME280;63555;49.920;17.868;2023-04-01T17:47:06;97351.94;;;9.24;66.33
69911;BME280;63555;49.920;17.868;2023-04-01T18:08:02;97365.75;;;9.36;66.92
69911;BME280;63555;49.920;17.868;2023-04-01T18:13:48;97375.97;;;9.39;67.08
69911;BME280;63555;49.920;17.868;2023-04-01T18:18:54;97378.47;;;9.41;67.13
69911;BME280;63555;49.920;17.868;2023-04-01T18:24:03;97383.59;;;9.42;67.20
69911;BME280;63555;49.920;17.868;2023-04-01T18:35:00;97397.84;;;9.40;68.16
69911;BME280;63555;49.920;17.868;2023-04-01T18:45:43;97424.75;;;9.05;69.37
69911;BME280;63555;49.920;17.868;2023-04-01T18:50:58;97420.63;;;8.92;70.02
69911;BME280;63555;49.920;17.868;2023-04-01T18:56:15;97439.16;;;8.81;70.70
69911;BME280;63555;49.920;17.868;2023-04-01T19:01:36;97432.22;;;8.71;71.40
69911;BME280;63555;49.920;17.868;2023-04-01T19:27:50;97437.91;;;8.26;72.60
69911;BME280;63555;49.920;17.868;2023-04-01T19:38:32;97459.81;;;8.06;73.36
69911;BME280;63555;49.920;17.868;2023-04-01T19:58:58;97474.22;;;8.21;74.01
69911;BME280;63555;49.920;17.868;2023-04-01T20:04:17;97470.78;;;8.20;73.81
69911;BME280;63555;49.920;17.868;2023-04-01T20:14:53;97479.56;;;8.10;74.77
69911;BME280;63555;49.920;17.868;2023-04-01T20:19:59;97481.47;;;7.98;74.60
69911;BME280;63555;49.920;17.868;2023-04-01T20:25:11;97478.91;;;7.87;74.71
69911;BME280;63555;49.920;17.868;2023-04-01T20:52:41;97498.97;;;7.88;75.38
69911;BME280;63555;49.920;17.868;2023-04-01T21:03:45;97505.59;;;7.92;75.70
69911;BME280;63555;49.920;17.868;2023-04-01T21:30:45;97522.81;;;8.06;76.24
69911;BME280;63555;49.920;17.868;2023-04-01T22:14:23;97562.56;;;8.01;77.00
69911;BME280;63555;49.920;17.868;2023-04-01T22:19:51;97561.16;;;7.97;77.34
69911;BME280;63555;49.920;17.868;2023-04-01T22:25:14;97572.31;;;7.89;77.72
69911;BME280;63555;49.920;17.868;2023-04-01T22:30:34;97572.00;;;7.83;77.96
69911;BME280;63555;49.920;17.868;2023-04-01T22:51:22;97567.53;;;7.62;79.22
69911;BME280;63555;49.920;17.868;2023-04-01T22:56:31;97574.38;;;7.54;79.16
69911;BME280;63555;49.920;17.868;2023-04-01T23:01:39;97573.94;;;7.49;79.77
69911;BME280;63555;49.920;17.868;2023-04-01T23:06:47;97586.91;;;7.50;79.98
69911;BME280;63555;49.920;17.868;2023-04-01T23:23:00;97589.63;;;7.60;80.54
69911;BME280;63555;49.920;17.868;2023-04-01T23:38:25;97605.16;;;7.52;80.89
69911;BME280;63555;49.920;17.868;2023-04-01T23:43:29;97604.31;;;7.51;81.14
69911;BME280;63555;49.920;17.868;2023-04-01T23:48:45;97606.38;;;7.48;80.99
69911;BME280;63555;49.920;17.868;2023-04-01T23:53:48;97611.72;;;7.46;80.87
69911;BME280;63555;49.920;17.868;2023-04-01T23:58:56;97601.38;;;7.45;81.57
